createdAt,value
2022-11-07T00:02:54.104Z,97635.69
2022-11-07T00:06:56.270Z,97634.00
2022-11-07T00:11:02.276Z,97629.78
2022-11-07T00:15:06.162Z,97628.88
2022-11-07T00:19:08.198Z,97627.09
2022-11-07T00:23:10.196Z,97625.41
2022-11-07T00:27:12.386Z,97629.66
2022-11-07T00:31:15.632Z,97645.31
2022-11-07T00:35:17.642Z,97650.56
2022-11-07T00:39:19.708Z,97656.63
2022-11-07T00:43:22.320Z,97661.00
2022-11-07T00:47:24.323Z,97660.09
2022-11-07T00:51:28.421Z,97660.06
2022-11-07T00:55:32.465Z,97656.38
2022-11-07T00:59:34.488Z,97657.31
2022-11-07T01:03:55.260Z,97659.06
2022-11-07T01:07:57.340Z,97672.94
2022-11-07T01:11:59.507Z,97666.00
2022-11-07T01:16:01.599Z,97665.13
2022-11-07T01:20:03.987Z,97667.94
2022-11-07T01:24:08.295Z,97677.44
2022-11-07T01:28:10.935Z,97679.34
2022-11-07T01:32:12.932Z,97677.84
2022-11-07T01:36:17.345Z,97688.34
2022-11-07T01:40:19.547Z,97684.00
2022-11-07T01:44:21.511Z,97681.31
2022-11-07T01:48:23.624Z,97682.91
2022-11-07T01:52:34.263Z,97680.31
2022-11-07T01:56:41.607Z,97666.34
2022-11-07T02:00:43.541Z,97665.47
2022-11-07T02:04:46.774Z,97670.84
2022-11-07T02:08:50.794Z,97665.63
2022-11-07T02:12:53.210Z,97660.44
2022-11-07T02:16:55.716Z,97669.28
2022-11-07T02:21:04.069Z,97664.22
2022-11-07T02:25:12.460Z,97671.22
2022-11-07T02:29:14.760Z,97666.13
2022-11-07T02:33:22.209Z,97664.38
2022-11-07T02:37:37.358Z,97656.59
2022-11-07T02:41:39.449Z,97660.84
2022-11-07T02:45:44.778Z,97658.97
2022-11-07T02:49:46.791Z,97654.50
2022-11-07T02:53:48.815Z,97660.56
2022-11-07T02:57:50.854Z,97670.19
2022-11-07T03:01:52.909Z,97657.91
2022-11-07T03:05:54.997Z,97661.22
2022-11-07T03:09:56.994Z,97658.63
2022-11-07T03:13:59.023Z,97666.28
2022-11-07T03:18:01.058Z,97678.25
2022-11-07T03:22:03.576Z,97673.81
2022-11-07T03:26:06.177Z,97667.53
2022-11-07T03:30:08.796Z,97670.66
2022-11-07T03:34:10.885Z,97688.91
2022-11-07T03:38:12.908Z,97676.59
2022-11-07T03:42:14.914Z,97680.81
2022-11-07T03:46:17.208Z,97674.47
2022-11-07T03:50:21.118Z,97671.66
2022-11-07T03:54:23.122Z,97676.75
2022-11-07T03:58:26.977Z,97686.25
2022-11-07T04:02:29.196Z,97693.09
2022-11-07T04:06:31.975Z,97689.56
2022-11-07T04:10:34.227Z,97697.28
2022-11-07T04:14:55.071Z,97681.47
2022-11-07T04:18:58.277Z,97690.22
2022-11-07T04:23:00.325Z,97682.38
2022-11-07T04:27:21.000Z,97695.47
2022-11-07T04:31:23.123Z,97702.50
2022-11-07T04:35:27.686Z,97703.38
2022-11-07T04:39:29.778Z,97711.03
2022-11-07T04:43:31.859Z,97697.03
2022-11-07T04:47:40.043Z,97693.59
2022-11-07T04:51:46.014Z,97688.50
2022-11-07T04:55:48.048Z,97689.38
2022-11-07T04:59:50.062Z,97700.81
2022-11-07T05:03:52.056Z,97698.19
2022-11-07T05:07:54.133Z,97696.44
2022-11-07T05:11:56.211Z,97698.13
2022-11-07T05:15:58.203Z,97701.59
2022-11-07T05:20:00.206Z,97707.19
2022-11-07T05:24:02.212Z,97714.38
2022-11-07T05:28:04.837Z,97705.63
2022-11-07T05:32:06.804Z,97712.31
2022-11-07T05:36:14.188Z,97711.41
2022-11-07T05:40:16.306Z,97713.13
2022-11-07T05:44:18.347Z,97698.97
2022-11-07T05:48:20.305Z,97709.72
2022-11-07T05:52:22.371Z,97709.72
2022-11-07T05:56:24.379Z,97714.19
2022-11-07T06:00:26.625Z,97715.81
2022-11-07T06:04:28.616Z,97712.97
2022-11-07T06:08:30.609Z,97715.53
2022-11-07T06:12:32.959Z,97724.25
2022-11-07T06:16:34.989Z,97725.00
2022-11-07T06:20:37.019Z,97725.81
2022-11-07T06:24:39.019Z,97728.28
2022-11-07T06:28:41.030Z,97738.50
2022-11-07T06:32:45.634Z,97745.31
2022-11-07T06:37:01.628Z,97741.78
2022-11-07T06:41:13.970Z,97752.09
2022-11-07T06:45:16.017Z,97757.19
2022-11-07T06:49:18.021Z,97760.47
2022-11-07T06:53:20.256Z,97763.81
2022-11-07T06:57:22.338Z,97767.06
2022-11-07T07:01:24.549Z,97775.75
2022-11-07T07:05:27.324Z,97783.50
2022-11-07T07:09:29.342Z,97786.84
2022-11-07T07:13:31.533Z,97785.72
2022-11-07T07:17:33.721Z,97795.25
2022-11-07T07:21:35.754Z,97791.81
2022-11-07T07:25:37.771Z,97793.16
2022-11-07T07:29:39.732Z,97798.06
2022-11-07T07:33:42.548Z,97794.22
2022-11-07T07:37:49.342Z,97803.25
2022-11-07T07:41:51.380Z,97793.84
2022-11-07T07:46:06.476Z,97785.84
2022-11-07T07:50:10.530Z,97792.81
2022-11-07T07:54:12.539Z,97785.22
2022-11-07T07:58:14.810Z,97790.03
2022-11-07T08:02:17.052Z,97796.28
2022-11-07T08:06:19.100Z,97791.16
2022-11-07T08:14:43.273Z,97801.53
2022-11-07T08:18:45.295Z,97804.06
2022-11-07T08:22:47.490Z,97809.31
2022-11-07T08:26:49.624Z,97805.13
2022-11-07T08:31:01.733Z,97812.16
2022-11-07T08:35:03.803Z,97813.88
2022-11-07T08:39:05.779Z,97814.56
2022-11-07T08:43:07.983Z,97822.91
2022-11-07T08:47:09.969Z,97820.03
2022-11-07T08:51:11.943Z,97824.16
2022-11-07T08:55:13.970Z,97829.41
2022-11-07T08:59:16.060Z,97825.22
2022-11-07T09:03:43.452Z,97816.44
2022-11-07T09:07:40.423Z,97808.09
2022-11-07T09:11:42.489Z,97817.13
2022-11-07T09:15:49.504Z,97824.41
2022-11-07T09:19:53.233Z,97812.22
2022-11-07T09:23:55.260Z,97829.53
2022-11-07T09:28:02.467Z,97814.84
2022-11-07T09:32:23.415Z,97821.63
2022-11-07T09:36:26.611Z,97828.41
2022-11-07T09:40:47.196Z,97832.41
2022-11-07T09:44:56.844Z,97837.28
2022-11-07T09:49:13.282Z,97836.09
2022-11-07T09:53:33.972Z,97826.56
2022-11-07T09:57:37.428Z,97837.28
2022-11-07T10:01:39.621Z,97834.53
2022-11-07T10:05:46.675Z,97838.13
2022-11-07T10:10:11.515Z,97842.19
2022-11-07T10:14:39.512Z,97842.19
2022-11-07T10:18:56.721Z,97848.22
2022-11-07T10:23:21.850Z,97855.53
2022-11-07T10:27:26.840Z,97842.13
2022-11-07T10:31:36.161Z,97853.59
2022-11-07T10:35:43.103Z,97862.09
2022-11-07T10:39:45.137Z,97858.69
2022-11-07T10:43:55.155Z,97864.63
2022-11-07T10:48:02.978Z,97862.16
2022-11-07T10:52:14.579Z,97855.78
2022-11-07T10:56:19.360Z,97865.66
2022-11-07T11:00:29.958Z,97866.81
2022-11-07T11:04:33.234Z,97876.75
2022-11-07T11:08:37.566Z,97858.78
2022-11-07T11:12:46.067Z,97842.22
2022-11-07T11:16:55.517Z,97830.47
2022-11-07T11:21:03.130Z,97849.34
2022-11-07T11:25:11.192Z,97856.31
2022-11-07T11:30:00.911Z,97849.47
2022-11-07T11:34:09.001Z,97842.34
2022-11-07T11:38:26.279Z,97833.84
2022-11-07T11:42:57.372Z,97830.16
2022-11-07T11:47:10.939Z,97836.94
2022-11-07T11:51:32.369Z,97832.84
2022-11-07T11:55:41.848Z,97832.38
2022-11-07T12:00:15.989Z,97821.69
2022-11-07T12:04:24.063Z,97825.50
2022-11-07T12:08:47.988Z,97824.38
2022-11-07T12:13:07.754Z,97809.34
2022-11-07T12:17:34.153Z,97808.66
2022-11-07T12:21:57.012Z,97805.16
2022-11-07T12:26:11.364Z,97798.06
2022-11-07T12:30:31.509Z,97809.34
2022-11-07T12:35:20.037Z,97810.75
2022-11-07T12:40:04.540Z,97815.66
2022-11-07T12:44:41.835Z,97807.97
2022-11-07T12:48:52.912Z,97813.94
2022-11-07T12:53:22.747Z,97808.66
2022-11-07T12:57:31.478Z,97804.97
2022-11-07T13:01:55.609Z,97806.41
2022-11-07T13:06:32.022Z,97807.00
2022-11-07T13:10:49.415Z,97792.81
2022-11-07T13:14:51.971Z,97787.44
2022-11-07T13:18:54.508Z,97779.31
2022-11-07T13:23:01.338Z,97781.59
2022-11-07T13:27:31.890Z,97792.53
2022-11-07T13:31:36.642Z,97797.63
2022-11-07T13:35:39.097Z,97790.28
2022-11-07T13:39:41.635Z,97792.34
2022-11-07T13:43:55.447Z,97791.56
2022-11-07T13:48:05.437Z,97796.44
2022-11-07T13:52:22.713Z,97792.66
2022-11-07T13:56:34.022Z,97807.88
2022-11-07T14:00:37.490Z,97811.63
2022-11-07T14:04:44.644Z,97805.78
2022-11-07T14:09:01.669Z,97812.38
2022-11-07T14:13:36.950Z,97810.06
2022-11-07T14:17:43.455Z,97819.75
2022-11-07T14:21:46.771Z,97821.53
2022-11-07T14:26:34.108Z,97827.06
2022-11-07T14:30:41.799Z,97821.59
2022-11-07T14:34:45.876Z,97832.66
2022-11-07T14:39:01.817Z,97836.91
2022-11-07T14:43:04.618Z,97835.22
2022-11-07T14:47:10.097Z,97838.03
2022-11-07T14:51:15.641Z,97835.06
2022-11-07T14:55:24.545Z,97838.88
2022-11-07T14:59:30.306Z,97833.81
2022-11-07T15:03:35.668Z,97834.91
2022-11-07T15:07:46.985Z,97831.75
2022-11-07T15:11:57.315Z,97830.16
2022-11-07T15:16:02.901Z,97835.75
2022-11-07T15:20:07.192Z,97836.97
2022-11-07T15:24:42.976Z,97832.72
2022-11-07T15:28:46.389Z,97841.53
2022-11-07T15:32:48.457Z,97835.41
2022-11-07T15:36:50.499Z,97825.75
2022-11-07T15:40:53.356Z,97839.00
2022-11-07T15:44:55.394Z,97842.03
2022-11-07T15:48:57.602Z,97850.97
2022-11-07T15:52:59.639Z,97845.16
2022-11-07T15:57:05.000Z,97842.09
2022-11-07T16:01:07.059Z,97836.41
2022-11-07T16:05:09.223Z,97830.63
2022-11-07T16:09:15.806Z,97831.91
2022-11-07T16:13:17.814Z,97833.84
2022-11-07T16:17:19.924Z,97823.34
2022-11-07T16:21:21.988Z,97827.63
2022-11-07T16:25:24.684Z,97830.25
2022-11-07T16:29:26.705Z,97839.84
2022-11-07T16:33:29.485Z,97839.72
2022-11-07T16:37:31.492Z,97853.63
2022-11-07T16:41:34.092Z,97843.88
2022-11-07T16:45:37.539Z,97837.75
2022-11-07T16:49:39.599Z,97842.16
2022-11-07T16:53:42.974Z,97843.03
2022-11-07T16:57:46.003Z,97841.50
2022-11-07T17:01:49.681Z,97848.53
2022-11-07T17:05:57.815Z,97845.91
2022-11-07T17:09:59.868Z,97846.00
2022-11-07T17:14:01.890Z,97845.06
2022-11-07T17:18:08.226Z,97851.16
2022-11-07T17:22:11.987Z,97852.19
2022-11-07T17:26:17.646Z,97850.81
2022-11-07T17:30:19.754Z,97853.00
2022-11-07T17:34:21.722Z,97855.19
2022-11-07T17:38:25.355Z,97865.03
2022-11-07T17:42:27.495Z,97873.84
2022-11-07T17:46:31.951Z,97871.16
2022-11-07T17:50:34.129Z,97868.28
2022-11-07T17:54:36.112Z,97857.66
2022-11-07T17:58:38.108Z,97860.28
2022-11-07T18:02:40.176Z,97870.97
2022-11-07T18:06:43.365Z,97880.63
2022-11-07T18:10:45.425Z,97867.78
2022-11-07T18:14:47.433Z,97879.59
2022-11-07T18:18:50.163Z,97874.59
2022-11-07T18:22:52.227Z,97866.03
2022-11-07T18:26:54.231Z,97867.97
2022-11-07T18:31:08.004Z,97875.91
2022-11-07T18:35:10.056Z,97875.22
2022-11-07T18:39:18.812Z,97880.78
2022-11-07T18:43:20.818Z,97872.59
2022-11-07T18:47:23.061Z,97877.47
2022-11-07T18:51:25.269Z,97884.03
2022-11-07T18:55:27.733Z,97877.38
2022-11-07T18:59:29.951Z,97869.88
2022-11-07T19:03:32.800Z,97872.78
2022-11-07T19:07:35.086Z,97872.94
2022-11-07T19:11:37.311Z,97873.22
2022-11-07T19:15:39.684Z,97864.75
2022-11-07T19:19:41.716Z,97876.22
2022-11-07T19:23:43.708Z,97858.94
2022-11-07T19:27:51.491Z,97860.72
2022-11-07T19:31:53.494Z,97859.31
2022-11-07T19:36:01.483Z,97860.28
2022-11-07T19:40:04.613Z,97863.00
2022-11-07T19:44:07.105Z,97868.53
2022-11-07T19:48:09.093Z,97867.00
2022-11-07T19:52:11.154Z,97863.88
2022-11-07T19:56:15.185Z,97871.97
2022-11-07T20:00:17.550Z,97868.72
2022-11-07T20:04:20.460Z,97868.03
2022-11-07T20:08:22.520Z,97867.38
2022-11-07T20:12:24.891Z,97870.22
2022-11-07T20:16:26.972Z,97861.72
2022-11-07T20:20:28.988Z,97863.53
2022-11-07T20:24:31.052Z,97869.94
2022-11-07T20:28:33.164Z,97866.66
2022-11-07T20:32:35.213Z,97867.63
2022-11-07T20:36:37.317Z,97867.72
2022-11-07T20:40:39.340Z,97868.78
2022-11-07T20:44:44.271Z,97867.13
2022-11-07T20:48:46.907Z,97877.69
2022-11-07T20:52:49.132Z,97871.72
2022-11-07T20:56:51.155Z,97868.34
2022-11-07T21:00:53.820Z,97875.41
2022-11-07T21:05:16.746Z,97873.69
2022-11-07T21:09:17.929Z,97877.25
2022-11-07T21:13:20.138Z,97880.78
2022-11-07T21:17:22.607Z,97886.94
2022-11-07T21:21:27.430Z,97875.66
2022-11-07T21:25:29.783Z,97870.44
2022-11-07T21:29:32.997Z,97865.34
2022-11-07T21:33:35.049Z,97868.00
2022-11-07T21:37:37.185Z,97875.81
2022-11-07T21:41:39.231Z,97874.75
2022-11-07T21:45:41.484Z,97872.94
2022-11-07T21:49:43.542Z,97871.28
2022-11-07T21:53:46.680Z,97860.94
2022-11-07T21:57:49.594Z,97860.16
2022-11-07T22:01:54.373Z,97861.09
2022-11-07T22:05:56.497Z,97854.00
2022-11-07T22:09:58.537Z,97868.59
2022-11-07T22:14:00.690Z,97867.59
2022-11-07T22:18:02.787Z,97849.34
2022-11-07T22:22:04.855Z,97855.50
2022-11-07T22:26:12.230Z,97845.16
2022-11-07T22:30:14.334Z,97833.88
2022-11-07T22:34:16.392Z,97833.19
2022-11-07T22:38:18.471Z,97832.31
2022-11-07T22:42:23.816Z,97831.25
2022-11-07T22:46:28.566Z,97825.88
2022-11-07T22:50:30.786Z,97826.81
2022-11-07T22:54:32.782Z,97823.41
2022-11-07T22:58:34.888Z,97823.56
2022-11-07T23:02:37.087Z,97822.75
2022-11-07T23:06:39.266Z,97815.03
2022-11-07T23:10:41.610Z,97801.94
2022-11-07T23:14:46.788Z,97810.06
2022-11-07T23:18:48.822Z,97824.28
2022-11-07T23:22:50.811Z,97824.38
2022-11-07T23:26:52.836Z,97827.84
2022-11-07T23:30:55.593Z,97828.16
2022-11-07T23:34:57.683Z,97827.59
2022-11-07T23:39:05.146Z,97826.88
2022-11-07T23:43:07.120Z,97828.09
2022-11-07T23:47:27.668Z,97819.47
2022-11-07T23:51:30.584Z,97813.38
2022-11-07T23:55:40.953Z,97810.59
